KHVR/HVR METAR and TAF weather

Enter ICAO airport designator
Station Type Date Time Source
KHVR METAR 2020/07/11 20:53 UTC NOAA

KHVR 112053Z AUTO 22011KT 10SM CLR 29/07 A3005 RMK AO2 SLP165 T02890067 58020


Station Type Date Time Source
KHVR Decoded METAR 2020/07/11 20:53 UTC NOAA

HAVRE CITY-COUNTY AIRPORT, MT, United States (KHVR) 48-33N 109-46W 787M
Jul 11, 2020 - 04:53 PM EDT / 2020.07.11 2053 UTC
Wind: from the SW (220 degrees) at 13 MPH (11 KT):0
Visibility: 10 mile(s):0
Sky conditions: clear
Temperature: 84.0 F (28.9 C)
Dew Point: 44.1 F (6.7 C)
Relative Humidity: 24%
Pressure (altimeter): 30.05 in. Hg (1017 hPa)
Pressure tendency: 0.06 inches (2.0 hPa) lower than three hours ago
ob: KHVR 112053Z AUTO 22011KT 10SM CLR 29/07 A3005 RMK AO2 SLP165 T02890067 58020
cycle: 21

Station Type Date Time Source
KHVR TAF 2020/07/11 18:33 UTC NOAA

TAF KHVR 111730Z 1118/1218 25008KT P6SM SKC
FM112200 VRB06KT P6SM SKC
FM121000 22008KT P6SM FEW150 SCT250
FM121400 25014KT P6SM SCT150 BKN250

Example: see airport list